Spirit Of Tasmania II — VNSZ — position and weather

sailwx.info

Track history (hours):
 
Tides and Currents Weather Stations Pressure Air Temp Water Temp Dewpoint Dewpoint Depression Visibility Wind Speed Wind Dir Waves Ship Positions

Spirit Of Tasmania II

Last reported at 2019-Apr-25 10:39 UTC. Time now 2019-Apr-26 04:21 UTC.
Position S 40°43' E 146°07'.

Length 194.3 m; beam 25 m; draft 6.2 m.

Type: Ship. MMSI: 503433000.

Date/timePositionNaut miles runAvg speedWind from/ knotsBaromVisibWave heightAir tempDewpointWater temp
2019-Apr-25 10:39S 40°43' E 146°07'425.5
2019-Apr-25 10:30S 40°47' E 146°09'1325.7
2019-Apr-25 10:00S 40°58' E 146°16'1223.6
2019-Apr-25 09:30S 41°09' E 146°23'2 3.7
2019-Apr-25 08:57S 41°11' E 146°22'0 0.0
2019-Apr-25 08:27S 41°11' E 146°22'0 0.0
2019-Apr-25 07:57S 41°11' E 146°22'0 0.0
2019-Apr-25 07:27S 41°11' E 146°22'0 0.0
2019-Apr-25 06:57S 41°11' E 146°22'0 0.0
2019-Apr-25 06:26S 41°11' E 146°22'0 0.0
2019-Apr-25 05:56S 41°11' E 146°22'0 0.0
2019-Apr-25 05:26S 41°11' E 146°22'0 0.0
2019-Apr-25 04:56S 41°11' E 146°22'0 0.0
2019-Apr-25 04:25S 41°11' E 146°22'0 0.0
2019-Apr-25 03:55S 41°11' E 146°22'0 0.0
2019-Apr-25 03:25S 41°11' E 146°22'0 0.0
2019-Apr-25 02:55S 41°11' E 146°22'0 0.0
2019-Apr-25 02:25S 41°11' E 146°22'0 0.0
2019-Apr-25 02:00S 41°11' E 146°22'0 0.0
2019-Apr-25 01:30S 41°11' E 146°22'0 0.0
2019-Apr-25 01:00S 41°11' E 146°22'0 0.0
2019-Apr-25 00:30S 41°11' E 146°22'0 0.0
2019-Apr-24 23:54S 41°11' E 146°22'0 0.0
2019-Apr-24 23:29S 41°11' E 146°22'0 0.0
2019-Apr-24 22:59S 41°11' E 146°22'0 0.0
2019-Apr-24 22:29S 41°11' E 146°22'0 0.0
2019-Apr-24 21:59S 41°11' E 146°22'0 0.0
2019-Apr-24 21:29S 41°11' E 146°22'0 0.0
2019-Apr-24 20:58S 41°11' E 146°22'0 0.0
2019-Apr-24 20:28S 41°11' E 146°22'0 0.0
2019-Apr-24 19:59S 41°11' E 146°22'3 7.0
2019-Apr-24 19:30S 41°08' E 146°22'1122.7
2019-Apr-24 19:00S 40°57' E 146°16'1122.6
2019-Apr-24 18:30S 40°47' E 146°09'5 0.1
2019-Apr-23 10:47S 40°43' E 146°07'726.8
2019-Apr-23 10:31S 40°49' E 146°12'1326.8
2019-Apr-23 10:00S 41°02' E 146°18'1019.2
2019-Apr-23 09:30S 41°11' E 146°22'0 0.2
2019-Apr-23 08:57S 41°11' E 146°22'0 0.0
2019-Apr-23 08:27S 41°11' E 146°22'0 0.0
2019-Apr-23 07:57S 41°11' E 146°22'0 0.0
2019-Apr-23 07:27S 41°11' E 146°22'0 0.0
2019-Apr-23 06:57S 41°11' E 146°22'0 0.0
2019-Apr-23 06:26S 41°11' E 146°22'0 0.0
2019-Apr-23 05:56S 41°11' E 146°22'0 0.0
2019-Apr-23 05:26S 41°11' E 146°22'0 0.0
2019-Apr-23 04:56S 41°11' E 146°22'0 0.0
2019-Apr-23 04:25S 41°11' E 146°22'0 0.0
2019-Apr-23 03:55S 41°11' E 146°22'0 0.0
2019-Apr-23 03:25S 41°11' E 146°22'0 0.0
2019-Apr-23 02:55S 41°11' E 146°22'0 0.0
2019-Apr-23 02:18S 41°11' E 146°22'0 0.0
2019-Apr-23 02:00S 41°11' E 146°22'0 0.0
2019-Apr-23 01:30S 41°11' E 146°22'0 0.0
2019-Apr-23 01:00S 41°11' E 146°22'0 0.0
2019-Apr-23 00:30S 41°11' E 146°22'0 0.0
2019-Apr-22 23:59S 41°11' E 146°22'0 0.0
2019-Apr-22 23:28S 41°11' E 146°22'0 0.0
2019-Apr-22 22:59S 41°11' E 146°22'0 0.0
2019-Apr-22 22:29S 41°11' E 146°22'0 0.0
2019-Apr-22 21:58S 41°11' E 146°22'0 0.0
2019-Apr-22 21:28S 41°11' E 146°22'0 0.0
2019-Apr-22 20:58S 41°11' E 146°22'1 3.0
2019-Apr-22 20:30S 41°10' E 146°22'1122.0
2019-Apr-22 20:00S 40°60' E 146°16'1427.8
2019-Apr-22 19:30S 40°47' E 146°07'3 0.2
2019-Apr-22 00:31S 40°49' E 146°11'127.4
2019-Apr-22 00:29S 40°50' E 146°11'1327.8
2019-Apr-22 00:00S 41°02' E 146°19'918.7
2019-Apr-21 23:30S 41°11' E 146°22'0 0.1
2019-Apr-21 22:24S 41°11' E 146°22'0 0.0
2019-Apr-21 21:55S 41°11' E 146°22'0 0.0
2019-Apr-21 21:30S 41°11' E 146°22'0 0.0
2019-Apr-21 21:00S 41°11' E 146°22'0 0.0
2019-Apr-21 20:30S 41°11' E 146°22'3 6.6
2019-Apr-21 20:00S 41°08' E 146°22'1325.6
2019-Apr-21 19:31S 40°56' E 146°15'1326.2
2019-Apr-21 19:00S 40°45' E 146°06'2 0.1
2019-Apr-21 00:02S 40°46' E 146°08'227.9
2019-Apr-20 23:58S 40°48' E 146°09'1327.9
2019-Apr-20 23:31S 40°59' E 146°17'1222.8
2019-Apr-20 23:00S 41°10' E 146°22'1 1.0
2019-Apr-20 22:21S 41°11' E 146°22'0 0.0
2019-Apr-20 22:00S 41°11' E 146°22'0 0.0
2019-Apr-20 21:30S 41°11' E 146°22'0 0.0
2019-Apr-20 21:00S 41°11' E 146°22'0 0.0
2019-Apr-20 20:29S 41°11' E 146°22'0 0.0
2019-Apr-20 19:59S 41°11' E 146°22'0 0.0
2019-Apr-20 19:30S 41°11' E 146°22'511.2
2019-Apr-20 19:00S 41°06' E 146°21'1224.3
2019-Apr-20 18:30S 40°55' E 146°13'1223.8
2019-Apr-20 18:00S 40°44' E 146°06'5523.7
2019-Apr-20 15:42S 39°55' E 145°35'48 1.9
2019-Apr-19 14:04S 40°38' E 146°03'228.1
2019-Apr-19 14:00S 40°40' E 146°04'1428.2
2019-Apr-19 13:31S 40°52' E 146°12'1428.1
2019-Apr-19 13:01S 41°05' E 146°20'612.2
2019-Apr-19 12:30S 41°11' E 146°22'0 0.0
2019-Apr-19 11:55S 41°11' E 146°22'0 0.0
2019-Apr-19 11:25S 41°11' E 146°22'0 0.0
2019-Apr-19 11:00S 41°11' E 146°22'0 0.0
2019-Apr-19 10:30S 41°11' E 146°22'4 9.1
2019-Apr-19 10:00S 41°06' E 146°21'1427.6
2019-Apr-19 09:30S 40°54' E 146°13'27 0.6
2019-Apr-17 11:27S 40°29' E 145°58'1226.7
2019-Apr-17 11:01S 40°40' E 146°04'1326.8
2019-Apr-17 10:31S 40°52' E 146°12'1326.7
2019-Apr-17 10:00S 41°04' E 146°20'714.7
2019-Apr-17 09:30S 41°11' E 146°22'0 0.4
2019-Apr-17 08:56S 41°11' E 146°22'0 0.0
2019-Apr-17 08:25S 41°11' E 146°22'0 0.0
2019-Apr-17 07:55S 41°11' E 146°22'0 0.0
2019-Apr-17 07:25S 41°11' E 146°22'0 0.0
2019-Apr-17 06:55S 41°11' E 146°22'0 0.0
2019-Apr-17 06:30S 41°11' E 146°22'0 0.0
2019-Apr-17 06:00S 41°11' E 146°22'0 0.0
2019-Apr-17 05:18S 41°11' E 146°22'0 0.0
2019-Apr-17 05:00S 41°11' E 146°22'0 0.0
2019-Apr-17 04:30S 41°11' E 146°22'0 0.0
2019-Apr-17 03:59S 41°11' E 146°22'0 0.0
2019-Apr-17 01:34S 41°11' E 146°22'0 0.0
2019-Apr-17 01:28S 41°11' E 146°22'31 0.8
2019-Apr-15 11:12S 40°42' E 146°06'526.9
2019-Apr-15 11:00S 40°47' E 146°09'  
Track history (hours):
 
Tides and Currents Weather Stations Pressure Air Temp Water Temp Dewpoint Dewpoint Depression Visibility Wind Speed Wind Dir Waves Ship Positions

Spirit Of Tasmania II

Last reported at 2019-Apr-25 10:39 UTC. Time now 2019-Apr-26 04:21 UTC.
Position S 40°43' E 146°07'.

Length 194.3 m; beam 25 m; draft 6.2 m.

Type: Ship. MMSI: 503433000.

Date/timePositionNaut miles runAvg speedWind from/ knotsBaromVisibWave heightAir tempDewpointWater temp
2019-Apr-25 10:39S 40°43' E 146°07'425.5
2019-Apr-25 10:30S 40°47' E 146°09'1325.7
2019-Apr-25 10:00S 40°58' E 146°16'1223.6
2019-Apr-25 09:30S 41°09' E 146°23'2 3.7
2019-Apr-25 08:57S 41°11' E 146°22'0 0.0
2019-Apr-25 08:27S 41°11' E 146°22'0 0.0
2019-Apr-25 07:57S 41°11' E 146°22'0 0.0
2019-Apr-25 07:27S 41°11' E 146°22'0 0.0
2019-Apr-25 06:57S 41°11' E 146°22'0 0.0
2019-Apr-25 06:26S 41°11' E 146°22'0 0.0
2019-Apr-25 05:56S 41°11' E 146°22'0 0.0
2019-Apr-25 05:26S 41°11' E 146°22'0 0.0
2019-Apr-25 04:56S 41°11' E 146°22'0 0.0
2019-Apr-25 04:25S 41°11' E 146°22'0 0.0
2019-Apr-25 03:55S 41°11' E 146°22'0 0.0
2019-Apr-25 03:25S 41°11' E 146°22'0 0.0
2019-Apr-25 02:55S 41°11' E 146°22'0 0.0
2019-Apr-25 02:25S 41°11' E 146°22'0 0.0
2019-Apr-25 02:00S 41°11' E 146°22'0 0.0
2019-Apr-25 01:30S 41°11' E 146°22'0 0.0
2019-Apr-25 01:00S 41°11' E 146°22'0 0.0
2019-Apr-25 00:30S 41°11' E 146°22'0 0.0
2019-Apr-24 23:54S 41°11' E 146°22'0 0.0
2019-Apr-24 23:29S 41°11' E 146°22'0 0.0
2019-Apr-24 22:59S 41°11' E 146°22'0 0.0
2019-Apr-24 22:29S 41°11' E 146°22'0 0.0
2019-Apr-24 21:59S 41°11' E 146°22'0 0.0
2019-Apr-24 21:29S 41°11' E 146°22'0 0.0
2019-Apr-24 20:58S 41°11' E 146°22'0 0.0
2019-Apr-24 20:28S 41°11' E 146°22'0 0.0
2019-Apr-24 19:59S 41°11' E 146°22'3 7.0
2019-Apr-24 19:30S 41°08' E 146°22'1122.7
2019-Apr-24 19:00S 40°57' E 146°16'1122.6
2019-Apr-24 18:30S 40°47' E 146°09'5 0.1
2019-Apr-23 10:47S 40°43' E 146°07'726.8
2019-Apr-23 10:31S 40°49' E 146°12'1326.8
2019-Apr-23 10:00S 41°02' E 146°18'1019.2
2019-Apr-23 09:30S 41°11' E 146°22'0 0.2
2019-Apr-23 08:57S 41°11' E 146°22'0 0.0
2019-Apr-23 08:27S 41°11' E 146°22'0 0.0
2019-Apr-23 07:57S 41°11' E 146°22'0 0.0
2019-Apr-23 07:27S 41°11' E 146°22'0 0.0
2019-Apr-23 06:57S 41°11' E 146°22'0 0.0
2019-Apr-23 06:26S 41°11' E 146°22'0 0.0
2019-Apr-23 05:56S 41°11' E 146°22'0 0.0
2019-Apr-23 05:26S 41°11' E 146°22'0 0.0
2019-Apr-23 04:56S 41°11' E 146°22'0 0.0
2019-Apr-23 04:25S 41°11' E 146°22'0 0.0
2019-Apr-23 03:55S 41°11' E 146°22'0 0.0
2019-Apr-23 03:25S 41°11' E 146°22'0 0.0
2019-Apr-23 02:55S 41°11' E 146°22'0 0.0
2019-Apr-23 02:18S 41°11' E 146°22'0 0.0
2019-Apr-23 02:00S 41°11' E 146°22'0 0.0
2019-Apr-23 01:30S 41°11' E 146°22'0 0.0
2019-Apr-23 01:00S 41°11' E 146°22'0 0.0
2019-Apr-23 00:30S 41°11' E 146°22'0 0.0
2019-Apr-22 23:59S 41°11' E 146°22'0 0.0
2019-Apr-22 23:28S 41°11' E 146°22'0 0.0
2019-Apr-22 22:59S 41°11' E 146°22'0 0.0
2019-Apr-22 22:29S 41°11' E 146°22'0 0.0
2019-Apr-22 21:58S 41°11' E 146°22'0 0.0
2019-Apr-22 21:28S 41°11' E 146°22'0 0.0
2019-Apr-22 20:58S 41°11' E 146°22'1 3.0
2019-Apr-22 20:30S 41°10' E 146°22'1122.0
2019-Apr-22 20:00S 40°60' E 146°16'1427.8
2019-Apr-22 19:30S 40°47' E 146°07'3 0.2
2019-Apr-22 00:31S 40°49' E 146°11'127.4
2019-Apr-22 00:29S 40°50' E 146°11'1327.8
2019-Apr-22 00:00S 41°02' E 146°19'918.7
2019-Apr-21 23:30S 41°11' E 146°22'0 0.1
2019-Apr-21 22:24S 41°11' E 146°22'0 0.0
2019-Apr-21 21:55S 41°11' E 146°22'0 0.0
2019-Apr-21 21:30S 41°11' E 146°22'0 0.0
2019-Apr-21 21:00S 41°11' E 146°22'0 0.0
2019-Apr-21 20:30S 41°11' E 146°22'3 6.6
2019-Apr-21 20:00S 41°08' E 146°22'1325.6
2019-Apr-21 19:31S 40°56' E 146°15'1326.2
2019-Apr-21 19:00S 40°45' E 146°06'2 0.1
2019-Apr-21 00:02S 40°46' E 146°08'227.9
2019-Apr-20 23:58S 40°48' E 146°09'1327.9
2019-Apr-20 23:31S 40°59' E 146°17'1222.8
2019-Apr-20 23:00S 41°10' E 146°22'1 1.0
2019-Apr-20 22:21S 41°11' E 146°22'0 0.0
2019-Apr-20 22:00S 41°11' E 146°22'0 0.0
2019-Apr-20 21:30S 41°11' E 146°22'0 0.0
2019-Apr-20 21:00S 41°11' E 146°22'0 0.0
2019-Apr-20 20:29S 41°11' E 146°22'0 0.0
2019-Apr-20 19:59S 41°11' E 146°22'0 0.0
2019-Apr-20 19:30S 41°11' E 146°22'511.2
2019-Apr-20 19:00S 41°06' E 146°21'1224.3
2019-Apr-20 18:30S 40°55' E 146°13'1223.8
2019-Apr-20 18:00S 40°44' E 146°06'5523.7
2019-Apr-20 15:42S 39°55' E 145°35'48 1.9
2019-Apr-19 14:04S 40°38' E 146°03'228.1
2019-Apr-19 14:00S 40°40' E 146°04'1428.2
2019-Apr-19 13:31S 40°52' E 146°12'1428.1
2019-Apr-19 13:01S 41°05' E 146°20'612.2
2019-Apr-19 12:30S 41°11' E 146°22'0 0.0
2019-Apr-19 11:55S 41°11' E 146°22'0 0.0
2019-Apr-19 11:25S 41°11' E 146°22'0 0.0
2019-Apr-19 11:00S 41°11' E 146°22'0 0.0
2019-Apr-19 10:30S 41°11' E 146°22'4 9.1
2019-Apr-19 10:00S 41°06' E 146°21'1427.6
2019-Apr-19 09:30S 40°54' E 146°13'27 0.6
2019-Apr-17 11:27S 40°29' E 145°58'1226.7
2019-Apr-17 11:01S 40°40' E 146°04'1326.8
2019-Apr-17 10:31S 40°52' E 146°12'1326.7
2019-Apr-17 10:00S 41°04' E 146°20'714.7
2019-Apr-17 09:30S 41°11' E 146°22'0 0.4
2019-Apr-17 08:56S 41°11' E 146°22'0 0.0
2019-Apr-17 08:25S 41°11' E 146°22'0 0.0
2019-Apr-17 07:55S 41°11' E 146°22'0 0.0
2019-Apr-17 07:25S 41°11' E 146°22'0 0.0
2019-Apr-17 06:55S 41°11' E 146°22'0 0.0
2019-Apr-17 06:30S 41°11' E 146°22'0 0.0
2019-Apr-17 06:00S 41°11' E 146°22'0 0.0
2019-Apr-17 05:18S 41°11' E 146°22'0 0.0
2019-Apr-17 05:00S 41°11' E 146°22'0 0.0
2019-Apr-17 04:30S 41°11' E 146°22'0 0.0
2019-Apr-17 03:59S 41°11' E 146°22'0 0.0
2019-Apr-17 01:34S 41°11' E 146°22'0 0.0
2019-Apr-17 01:28S 41°11' E 146°22'31 0.8
2019-Apr-15 11:12S 40°42' E 146°06'526.9
2019-Apr-15 11:00S 40°47' E 146°09'  

Dump ship's entire track history